Have a Safe July 4th! 

Flight Track Log - Related Links

Times and Time Zones

All times are in EDT time to prevent confusion due to time zone crossing. See the JBU33 flight status page for this flight to view local times or setup timezone preferences in your user account.

Time Position Orientation Groundspeed Altitude Reporting Facility
EDT Latitude Longitude Course Direction KTS MPH feet Rate Location/Type
Sat 01:17:13 PM 44.4156 -73.1289 196° South 200 230 2,700  Level Boston Center
Sat 01:18:13 PM 44.3508 -73.1542 196° South 221 254 5,700 3,300 Climbing Boston Center
Sat 01:19:13 PM 44.2797 -73.1853 197° South 260 299 9,300 3,450 Climbing Boston Center
Sat 01:20:13 PM 44.2025 -73.2161 196° South 287 330 12,600 2,500 Climbing Boston Center
Sat 01:21:00 PM 43.8536 -73.3754 196° South  Level FlightAware Approximate
Sat 01:21:13 PM 44.1125 -73.2556 197° South 320 368 14,300  Level Boston Center
Sat 01:22:00 PM 43.7980 -73.3976 196° South  Level FlightAware Approximate
Sat 01:22:13 PM 44.0144 -73.2944 196° South 355 409 16,800  Level Boston Center
Sat 01:23:13 PM 43.9097 -73.3392 197° South 388 447 19,300 2,300 Climbing Boston Center
Sat 01:24:13 PM 43.8053 -73.3808 196° South 394 453 21,400 1,900 Climbing Boston Center
Sat 01:25:13 PM 43.6967 -73.4281 197° South 410 472 23,100 1,700 Climbing Boston Center
Sat 01:26:13 PM 43.5900 -73.4664 195° South 427 491 24,800 1,727 Climbing Boston Center
Sat 01:27:25 PM 43.4456 -73.5239 196° South 439 505 26,900 1,455 Climbing Boston Center
Sat 01:28:25 PM 43.3264 -73.5731 197° South 444 511 28,000 550 Climbing Boston Center
Sat 01:29:25 PM 43.2050 -73.6194 196° South 444 511 28,000  Level Boston Center
Sat 01:30:25 PM 43.0836 -73.6711 197° South 449 517 28,000  Level Boston Center
Sat 01:31:25 PM 42.9600 -73.7197 196° South 459 528 28,000  Level Boston Center
Sat 01:32:25 PM 42.8386 -73.7681 196° South 459 528 28,000  Level Boston Center
Sat 01:33:25 PM 42.7194 -73.8050 193° South 459 528 28,000  Level Boston Center
Sat 01:34:25 PM 42.5817 -73.8133 183° South 459 528 28,000  Level Boston Center
Sat 01:35:25 PM 42.4547 -73.8133 180° South 453 521 28,000  Level Boston Center
Sat 01:36:25 PM 42.3275 -73.8161 181° South 453 521 28,000  Level Boston Center
Sat 01:37:25 PM 42.2022 -73.8189 181° South 453 521 28,000  Level Boston Center
Sat 01:38:25 PM 42.0772 -73.8331 185° South 458 527 28,000  Level Boston Center
Sat 01:39:25 PM 41.9578 -73.8722 194° South 463 533 28,000 -663 Level Boston Center
Sat 01:41:26 PM 41.7289 -73.9508 194° South 449 517 26,000 -1,267 Descending New York Center
Sat 01:42:25 PM 41.6658 -74.0506 230° Southwest 375 432 24,200 -1,916 Descending New York Center
Sat 01:43:25 PM 41.5736 -74.0764 192° South 342 394 22,200 -1,770 Descending New York Center
Sat 01:44:27 PM 41.4717 -74.0686 177° South 352 405 20,600 -1,100 Descending New York Center
Sat 01:45:25 PM 41.3778 -74.0778 184° South 352 405 20,000 -305 Descending New York Center
Sat 01:46:25 PM 41.3008 -74.1431 213° Southwest 335 386 20,000 -50 Level New York Center
Sat 01:47:25 PM 41.2158 -74.1994 207° Southwest 335 386 19,900 -295 Descending New York Center
Sat 01:48:27 PM 41.1183 -74.1864 174° South 335 386 19,400 -450 Descending New York Center
Sat 01:49:25 PM 41.0294 -74.1653 170° South 346 398 19,000 -252 Descending New York Center
Sat 01:50:26 PM 40.9261 -74.1353 168° South 346 398 18,900 -590 Descending New York Center
Sat 01:51:27 PM 40.8706 -74.0447 129° Southeast 346 398 17,800 -1,513 Descending New York Center
Sat 01:52:25 PM 40.8111 -73.9242 123° Southeast 351 404 15,900 -1,729 Descending New York Center
Sat 01:53:25 PM 40.7636 -73.8286 123° Southeast 351 404 14,400 -1,636 Descending New York Center
Sat 01:54:26 PM 40.7103 -73.7222 123° Southeast 331 381 12,600 -1,650 Descending New York Center
Sat 01:55:25 PM 40.6361 -73.6917 163° South 298 343 11,100 -1,714 Descending New York Center
Sat 01:56:25 PM 40.5472 -73.6578 164° South 304 350 9,200 -1,537 Descending New York Center
Sat 01:57:26 PM 40.4689 -73.6272 163° South 304 350 8,000 -1,041 Descending New York Center
Sat 01:58:26 PM 40.3986 -73.6025 165° South 297 342 7,100 -1,388 Descending New York Center
Sat 01:59:27 PM 40.3367 -73.6600 215° Southwest 248 285 5,200 -1,339 Descending New York Center
Sat 02:00:27 PM 40.3328 -73.7306 266° West 210 242 4,400 -1,017 Descending New York Center
Sat 02:01:25 PM 40.3561 -73.8025 293° West 211 243 3,200 -712 Descending New York Center
Sat 02:02:25 PM 40.3958 -73.8722 307° West 217 250 3,000 -200 Descending New York Center

Login

Don't have an account? Register now (free) for customized features, flight alerts, and more!